RJNA(METAR)
08/23 01:00
METAR RJNA 221600Z VRB02KT 9999 FEW030 BKN080 BKN/// 25/23 Q1014 RMK
1CU030 5AC080 A2994=
戻る
トップページへ戻る
IMOC Co,.Ltd.